Time;durP1;ratioP1;P1;durP2;ratioP2;P2;SDS_P1;SDS_P2;PMS_P1;PMS_P2;Temp;Humidity;BMP_temperature;BMP_pressure;BME280_temperature;BME280_humidity;BME280_pressure;Samples;Min_cycle;Max_cycle;Signal;HPM_P1;HPM_P2
2021/04/11 00:00:09;;;;;;;;;;;10.40;99.90;;;;;;4991053;28;20428;-71
2021/04/11 00:02:35;;;;;;;17.00;9.57;;;10.30;99.90;;;;;;4990225;28;20084;-71
2021/04/11 00:05:03;;;;;;;16.77;9.13;;;10.40;99.90;;;;;;4990553;28;20050;-71
2021/04/11 00:07:30;;;;;;;22.55;8.88;;;10.30;99.90;;;;;;4989712;28;20088;-71
2021/04/11 00:09:57;;;;;;;14.98;7.00;;;10.40;99.90;;;;;;4990352;28;20072;-71
2021/04/11 00:12:23;;;;;;;;;;;10.40;99.90;;;;;;4990838;28;20426;-71
2021/04/11 00:14:50;;;;;;;14.85;7.20;;;10.50;99.90;;;;;;4990376;28;19928;-71
2021/04/11 00:17:16;;;;;;;11.50;6.53;;;10.50;99.90;;;;;;4989568;28;20058;-71
2021/04/11 00:19:43;;;;;;;14.32;6.78;;;10.50;99.90;;;;;;4990235;28;20541;-72
2021/04/11 00:22:09;;;;;;;;;;;10.50;99.90;;;;;;4990562;28;20086;-72
2021/04/11 00:24:37;;;;;;;9.98;5.53;;;10.60;99.90;;;;;;4990349;28;19928;-71
2021/04/11 00:27:04;;;;;;;13.82;7.05;;;10.50;99.90;;;;;;4989772;28;20050;-71
2021/04/11 00:29:30;;;;;;;12.52;6.75;;;10.50;99.90;;;;;;4990010;28;20093;-72
2021/04/11 00:31:56;;;;;;;;;;;10.50;99.90;;;;;;4990515;28;20046;-72
2021/04/11 00:34:23;;;;;;;10.25;5.82;;;10.50;99.90;;;;;;4990138;28;19992;-71
2021/04/11 00:36:50;;;;;;;;;;;10.60;99.90;;;;;;4990449;28;20050;-71
2021/04/11 00:39:16;;;;;;;13.00;5.95;;;10.60;99.90;;;;;;4990117;28;19921;-72
2021/04/11 00:41:47;;;;;;;11.90;5.75;;;10.60;99.90;;;;;;4989647;28;20058;-71
2021/04/11 00:44:15;;;;;;;11.73;5.93;;;10.50;99.90;;;;;;4990211;28;20054;-71
2021/04/11 00:46:46;;;;;;;9.35;5.43;;;10.60;99.90;;;;;;4989668;28;20072;-71
2021/04/11 00:49:19;;;;;;;11.23;5.28;;;10.60;99.90;;;;;;4988955;28;20472;-71
2021/04/11 00:51:46;;;;;;;11.13;5.45;;;10.60;99.90;;;;;;4989667;28;20434;-71
2021/04/11 00:54:13;;;;;;;11.13;6.20;;;10.70;99.90;;;;;;4989892;28;20491;-71
2021/04/11 00:56:39;;;;;;;12.38;6.65;;;10.70;99.90;;;;;;4990152;28;20053;-71
2021/04/11 00:59:08;;;;;;;10.60;5.57;;;10.70;99.90;;;;;;4989035;28;20491;-71
2021/04/11 01:01:36;;;;;;;13.38;5.60;;;10.70;99.90;;;;;;4989871;28;20057;-71
2021/04/11 01:04:04;;;;;;;11.23;5.80;;;10.70;99.90;;;;;;4989786;28;20062;-71
2021/04/11 01:06:34;;;;;;;16.40;6.50;;;10.70;99.90;;;;;;4989653;28;20154;-71
2021/04/11 01:09:07;;;;;;;10.82;6.00;;;10.80;99.90;;;;;;4988949;28;20089;-71
2021/04/11 01:11:34;;;;;;;11.85;5.78;;;10.80;99.90;;;;;;4989708;28;20573;-71
2021/04/11 01:14:05;;;;;;;10.10;4.95;;;10.80;99.90;;;;;;4989495;28;20058;-72
2021/04/11 01:16:33;;;;;;;11.27;5.95;;;10.80;99.90;;;;;;4989627;28;20057;-71
2021/04/11 01:19:00;;;;;;;11.52;5.10;;;10.70;99.90;;;;;;4988911;28;20057;-71
2021/04/11 01:21:33;;;;;;;9.75;5.38;;;10.70;99.90;;;;;;4989778;28;20511;-71
2021/04/11 01:24:09;;;;;;;10.63;5.57;;;10.70;99.90;;;;;;4989437;28;20499;-71
2021/04/11 01:26:37;;;;;;;11.10;5.15;;;10.80;99.90;;;;;;4989827;28;20061;-71
2021/04/11 01:29:05;;;;;;;14.50;5.63;;;10.80;99.90;;;;;;4988840;28;20046;-71
2021/04/11 01:31:33;;;;;;;10.75;5.50;;;10.80;99.90;;;;;;4989705;28;20418;-71
2021/04/11 01:34:00;;;;;;;11.73;5.80;;;10.80;99.90;;;;;;4989232;28;20423;-71
2021/04/11 01:36:29;;;;;;;10.90;5.40;;;10.80;99.90;;;;;;4989490;28;20503;-72
2021/04/11 01:38:58;;;;;;;14.07;6.00;;;10.80;99.90;;;;;;4988550;28;20510;-71
2021/04/11 01:41:29;;;;;;;9.38;5.38;;;10.80;99.90;;;;;;4989515;28;20082;-71
2021/04/11 01:43:58;;;;;;;10.15;5.93;;;10.70;99.90;;;;;;4989630;28;20061;-71
2021/04/11 01:46:26;;;;;;;9.38;5.60;;;10.80;99.90;;;;;;4989694;28;20058;-71
2021/04/11 01:48:55;;;;;;;12.90;5.82;;;10.80;99.90;;;;;;4988666;28;20414;-71
2021/04/11 01:51:25;;;;;;;11.57;5.72;;;10.80;99.90;;;;;;4989281;28;20054;-71
2021/04/11 01:53:52;;;;;;;11.80;5.65;;;10.70;99.90;;;;;;4989583;28;20089;-71
2021/04/11 01:56:20;;;;;;;10.63;5.53;;;10.80;99.90;;;;;;4989439;28;20046;-71
2021/04/11 01:58:47;;;;;;;10.63;5.72;;;10.70;99.90;;;;;;4988402;28;20050;-72
2021/04/11 02:01:21;;;;;;;13.68;5.90;;;10.70;99.90;;;;;;4989432;28;20079;-71
2021/04/11 02:03:52;;;;;;;13.73;6.43;;;10.70;99.90;;;;;;4992386;28;20506;-72
2021/04/11 02:06:19;;;;;;;12.70;5.60;;;10.80;99.90;;;;;;4993076;28;20054;-71
2021/04/11 02:08:48;;;;;;;14.82;6.47;;;10.70;99.90;;;;;;4991957;28;20054;-72
2021/04/11 02:11:16;;;;;;;11.32;6.00;;;10.80;99.90;;;;;;4992917;28;20084;-71
2021/04/11 02:13:43;;;;;;;10.60;6.00;;;10.70;99.90;;;;;;4992153;28;20046;-72
2021/04/11 02:16:14;;;;;;;13.27;6.53;;;10.80;99.90;;;;;;4992388;28;20042;-71
2021/04/11 02:18:42;;;;;;;11.18;5.80;;;10.80;99.90;;;;;;4991427;28;20069;-71
2021/04/11 02:21:13;;;;;;;10.07;5.22;;;10.80;99.90;;;;;;4992715;28;20057;-71
2021/04/11 02:23:40;;;;;;;12.60;5.55;;;10.80;99.90;;;;;;4992372;28;20054;-71
2021/04/11 02:26:07;;;;;;;;;;;10.70;99.90;;;;;;4992819;28;20054;-71
2021/04/11 02:28:34;;;;;;;10.15;5.30;;;10.80;99.90;;;;;;4991463;28;19957;-71
2021/04/11 02:31:16;;;;;;;11.32;5.10;;;10.80;99.90;;;;;;4992399;28;20054;-71
2021/04/11 02:33:55;;;;;;;8.98;5.30;;;10.70;99.90;;;;;;4992228;28;20053;-71
2021/04/11 02:36:23;;;;;;;13.27;6.10;;;10.70;99.90;;;;;;4992283;28;20061;-71
2021/04/11 02:38:53;;;;;;;10.73;5.18;;;10.70;99.90;;;;;;4991367;28;20077;-71
2021/04/11 02:41:22;;;;;;;10.95;5.45;;;10.70;99.90;;;;;;4992083;28;20057;-71
2021/04/11 02:43:49;;;;;;;12.13;6.15;;;10.70;99.90;;;;;;4991830;28;20058;-71
2021/04/11 02:46:17;;;;;;;16.50;6.75;;;10.60;99.90;;;;;;4992159;28;20502;-71
2021/04/11 02:48:44;;;;;;;12.73;6.57;;;10.60;99.90;;;;;;4990962;28;20109;-71
2021/04/11 02:51:12;;;;;;;11.43;6.30;;;10.50;99.90;;;;;;4992494;28;20050;-71
2021/04/11 02:53:41;;;;;;;12.52;6.15;;;10.40;99.90;;;;;;4991398;28;20054;-71
2021/04/11 02:56:08;;;;;;;11.60;7.20;;;10.30;99.90;;;;;;4992099;28;20054;-71
2021/04/11 02:58:34;;;;;;;12.48;7.18;;;10.20;99.90;;;;;;4991078;28;20150;-71
2021/04/11 03:01:04;;;;;;;17.08;8.00;;;10.20;99.90;;;;;;4991706;28;20054;-71
2021/04/11 03:03:31;;;;;;;15.73;8.05;;;10.10;99.90;;;;;;4991556;28;20050;-71
2021/04/11 03:06:03;;;;;;;15.63;7.75;;;10.10;99.90;;;;;;4991548;28;20058;-71
2021/04/11 03:08:33;;;;;;;15.88;7.53;;;10.00;99.90;;;;;;4990752;28;20140;-71
2021/04/11 03:11:08;;;;;;;12.77;7.38;;;10.10;99.90;;;;;;4991732;28;20054;-71
2021/04/11 03:13:35;;;;;;;13.35;6.80;;;9.90;99.90;;;;;;4991046;28;20092;-71
2021/04/11 03:16:02;;;;;;;12.75;7.25;;;9.90;99.90;;;;;;4991378;28;20345;-71
2021/04/11 03:18:30;;;;;;;12.05;6.72;;;9.90;99.90;;;;;;4990367;28;20046;-71
2021/04/11 03:20:58;;;;;;;14.05;7.00;;;9.80;99.90;;;;;;4991403;28;20050;-71
2021/04/11 03:23:25;;;;;;;13.30;7.43;;;9.70;99.90;;;;;;4991388;28;20078;-71
2021/04/11 03:25:57;;;;;;;14.10;6.70;;;9.70;99.90;;;;;;4990898;28;20423;-71
2021/04/11 03:28:29;;;;;;;12.73;7.05;;;9.70;99.90;;;;;;4990371;28;20046;-71
2021/04/11 03:31:03;;;;;;;12.82;7.10;;;9.70;99.90;;;;;;4990972;28;20057;-71
2021/04/11 03:33:32;;;;;;;14.50;7.72;;;9.60;99.90;;;;;;4991006;28;20058;-71
2021/04/11 03:35:58;;;;;;;13.25;7.38;;;9.50;99.90;;;;;;4990767;28;20100;-71
2021/04/11 03:38:29;;;;;;;15.77;8.68;;;9.50;99.90;;;;;;4990383;28;20054;-71
2021/04/11 03:40:58;;;;;;;15.40;7.68;;;9.30;99.90;;;;;;4991288;28;20062;-71
2021/04/11 03:43:28;;;;;;;20.17;9.15;;;9.20;99.90;;;;;;4991662;28;20474;-71
2021/04/11 03:45:57;;;;;;;17.23;8.63;;;9.20;99.90;;;;;;4990605;28;20042;-71
2021/04/11 03:48:30;;;;;;;15.82;8.63;;;9.10;99.90;;;;;;4990385;28;20058;-71
2021/04/11 03:51:00;;;;;;;15.15;8.30;;;9.10;99.90;;;;;;4990808;28;20499;-71
2021/04/11 03:53:32;;;;;;;19.05;9.05;;;9.10;99.90;;;;;;4990930;28;20511;-71
2021/04/11 03:56:03;;;;;;;14.00;8.20;;;9.00;99.90;;;;;;4990303;28;20057;-71
2021/04/11 03:58:35;;;;;;;14.98;8.50;;;9.00;99.90;;;;;;4990008;28;20049;-71
2021/04/11 04:01:07;;;;;;;13.32;8.15;;;8.90;99.90;;;;;;4990407;28;20104;-71
2021/04/11 04:03:38;;;;;;;14.98;8.60;;;8.80;99.90;;;;;;4990667;28;20058;-71
2021/04/11 04:06:11;;;;;;;16.25;8.55;;;8.80;99.90;;;;;;4990357;28;20419;-71
2021/04/11 04:08:37;;;;;;;16.92;8.65;;;8.90;99.90;;;;;;4989936;28;20446;-71
2021/04/11 04:11:18;;;;;;;14.70;8.60;;;8.80;99.90;;;;;;4990346;28;20108;-71
2021/04/11 04:14:01;;;;;;;16.63;8.65;;;8.70;99.90;;;;;;4990347;28;20090;-71
2021/04/11 04:16:41;;;;;;;13.38;8.55;;;8.60;99.90;;;;;;4990181;28;20475;-71
2021/04/11 04:19:21;;;;;;;16.52;8.10;;;8.60;99.90;;;;;;4989479;28;20092;-71
2021/04/11 04:22:09;;;;;;;14.05;8.10;;;8.50;99.90;;;;;;4990244;28;20046;-71
2021/04/11 04:24:48;;;;;;;14.45;8.98;;;8.40;99.90;;;;;;4989363;28;20526;-71
2021/04/11 04:27:28;;;;;;;15.60;8.88;;;8.40;99.90;;;;;;4989325;28;20046;-71
2021/04/11 04:30:08;;;;;;;15.63;8.70;;;8.30;99.90;;;;;;4989877;28;20050;-71
2021/04/11 04:32:44;;;;;;;14.55;7.68;;;8.30;99.90;;;;;;4990217;28;20050;-71
2021/04/11 04:35:20;;;;;;;16.65;9.48;;;8.30;99.90;;;;;;4990206;28;20054;-71
2021/04/11 04:38:13;;;;;;;16.53;8.80;;;8.40;99.90;;;;;;4989279;28;20414;-71
2021/04/11 04:40:48;;;;;;;13.60;8.50;;;8.50;99.90;;;;;;4990064;28;20050;-71
2021/04/11 04:43:28;;;;;;;14.23;8.57;;;8.50;99.90;;;;;;4990071;28;20405;-71
2021/04/11 04:46:10;;;;;;;15.45;8.40;;;8.50;99.90;;;;;;4989914;28;20109;-71
2021/04/11 04:48:40;;;;;;;16.25;8.23;;;8.40;99.90;;;;;;4989552;28;20070;-70
2021/04/11 04:51:12;;;;;;;13.15;7.70;;;8.50;99.90;;;;;;4989787;28;20046;-71
2021/04/11 04:53:45;;;;;;;13.85;7.85;;;8.50;99.90;;;;;;4990213;28;20061;-71
2021/04/11 04:56:16;;;;;;;14.02;8.38;;;8.40;99.90;;;;;;4990067;28;20053;-71
2021/04/11 04:58:47;;;;;;;18.05;8.07;;;8.30;99.90;;;;;;4989093;28;20410;-71
2021/04/11 05:01:17;;;;;;;15.32;7.68;;;8.30;99.90;;;;;;4989947;28;20046;-71
2021/04/11 05:03:48;;;;;;;12.82;7.22;;;8.30;99.90;;;;;;4989902;28;20412;-71
2021/04/11 05:06:17;;;;;;;14.20;7.22;;;8.30;99.90;;;;;;4989726;28;20054;-71
2021/04/11 05:08:51;;;;;;;13.32;7.05;;;8.40;99.90;;;;;;4989362;28;20054;-71
2021/04/11 05:11:23;;;;;;;14.63;6.90;;;8.50;99.90;;;;;;4989664;28;20065;-71
2021/04/11 05:13:54;;;;;;;17.33;7.50;;;8.60;99.90;;;;;;4989560;28;20077;-71
2021/04/11 05:16:26;;;;;;;16.20;7.55;;;8.60;99.90;;;;;;4989527;28;20051;-71
2021/04/11 05:18:58;;;;;;;16.60;7.13;;;8.70;99.90;;;;;;4989480;28;20410;-71
2021/04/11 05:21:28;;;;;;;13.05;7.38;;;8.70;99.90;;;;;;4989485;28;20054;-71
2021/04/11 05:24:01;;;;;;;13.10;7.63;;;8.80;99.90;;;;;;4989873;28;20085;-71
2021/04/11 05:26:36;;;;;;;12.32;7.93;;;8.90;99.90;;;;;;4989549;28;20059;-71
2021/04/11 05:29:11;;;;;;;13.68;6.65;;;9.00;99.90;;;;;;4989018;28;20058;-71
2021/04/11 05:31:39;;;;;;;12.98;7.30;;;9.20;99.90;;;;;;4989815;28;20105;-71
2021/04/11 05:34:09;;;;;;;12.38;6.20;;;9.30;99.90;;;;;;4989764;28;20097;-71
2021/04/11 05:36:46;;;;;;;14.82;7.40;;;9.40;99.90;;;;;;4991286;28;20049;-71
2021/04/11 05:39:24;;;;;;;13.93;7.22;;;9.50;99.90;;;;;;4992933;28;20050;-71
2021/04/11 05:41:58;;;;;;;12.90;6.40;;;9.60;99.90;;;;;;4992936;28;20054;-71
2021/04/11 05:44:30;;;;;;;12.90;6.15;;;9.70;99.90;;;;;;4993283;28;20050;-71
2021/04/11 05:47:03;;;;;;;12.35;6.30;;;9.70;99.90;;;;;;4992304;28;20495;-70
2021/04/11 05:49:35;;;;;;;13.68;5.80;;;9.80;99.90;;;;;;4993173;28;20050;-71
2021/04/11 05:52:08;;;;;;;16.92;7.55;;;9.90;99.90;;;;;;4992887;28;20342;-71
2021/04/11 05:54:38;;;;;;;17.50;7.05;;;10.00;99.90;;;;;;4993175;28;20054;-71
2021/04/11 05:57:08;;;;;;;11.32;6.30;;;10.00;99.90;;;;;;4992284;28;20050;-71
2021/04/11 05:59:41;;;;;;;12.77;5.88;;;10.10;99.90;;;;;;4993224;28;20046;-71
2021/04/11 06:02:15;;;;;;;11.32;5.60;;;10.20;99.90;;;;;;4992924;28;20140;-71
2021/04/11 06:04:47;;;;;;;10.40;5.60;;;10.30;99.90;;;;;;4992961;28;20077;-71
2021/04/11 06:07:18;;;;;;;12.07;5.28;;;10.40;99.90;;;;;;4992471;28;20057;-71
2021/04/11 06:09:46;;;;;;;12.80;6.28;;;10.50;99.90;;;;;;4992959;28;20050;-71
2021/04/11 06:12:19;;;;;;;10.55;5.80;;;10.60;99.90;;;;;;4992906;28;20059;-71
2021/04/11 06:14:54;;;;;;;12.68;6.10;;;10.70;99.90;;;;;;4992570;28;20069;-71
2021/04/11 06:17:22;;;;;;;12.05;6.15;;;10.80;99.90;;;;;;4992176;28;20068;-71
2021/04/11 06:19:49;;;;;;;12.35;5.95;;;10.80;99.90;;;;;;4992788;28;20494;-71
2021/04/11 06:22:23;;;;;;;11.48;6.07;;;10.80;99.90;;;;;;4992918;28;20097;-71
2021/04/11 06:24:54;;;;;;;12.07;5.43;;;10.90;99.90;;;;;;4993124;28;20054;-71
2021/04/11 06:27:39;;;;;;;15.00;6.50;;;11.00;99.90;;;;;;4992167;28;20050;-71
2021/04/11 06:30:14;;;;;;;13.57;6.25;;;11.10;99.90;;;;;;4993126;28;20142;-71
2021/04/11 06:32:45;;;;;;;10.52;5.50;;;11.30;99.90;;;;;;4992469;28;20073;-71
2021/04/11 06:35:14;;;;;;;13.60;5.95;;;11.30;99.90;;;;;;4992670;28;20054;-71
2021/04/11 06:37:45;;;;;;;12.90;6.18;;;11.40;99.90;;;;;;4991708;28;20101;-71
2021/04/11 06:40:27;;;;;;;12.88;6.28;;;11.50;99.90;;;;;;4992835;28;20254;-71
2021/04/11 06:43:15;;;;;;;13.43;6.28;;;11.50;99.90;;;;;;4997187;28;20054;-71
2021/04/11 06:45:50;;;;;;;11.95;5.57;;;11.60;99.90;;;;;;4992796;28;20148;-71
2021/04/11 06:49:01;;;;;;;10.77;5.28;;;11.70;99.90;;;;;;4990865;28;20065;-71
2021/04/11 06:51:53;;;;;;;11.48;5.70;;;11.80;99.90;;;;;;4972969;28;20573;-71
2021/04/11 06:54:50;;;;;;;11.13;5.15;;;11.80;99.90;;;;;;4992835;28;20093;-71
2021/04/11 06:57:36;;;;;;;15.23;5.47;;;11.80;99.90;;;;;;4991302;28;20414;-71
2021/04/11 07:00:15;;;;;;;12.98;5.78;;;11.80;99.90;;;;;;4991901;28;20522;-71
2021/04/11 07:03:26;;;;;;;12.07;5.50;;;11.70;99.90;;;;;;4991970;28;20553;-71
2021/04/11 07:06:33;;;;;;;11.48;5.45;;;11.70;99.90;;;;;;4991596;28;20518;-71
2021/04/11 07:09:17;;;;;;;12.75;5.88;;;11.80;99.90;;;;;;4991069;28;20082;-72
2021/04/11 07:12:37;;;;;;;14.20;5.75;;;11.90;99.90;;;;;;4991453;28;20557;-71
2021/04/11 07:15:26;;;;;;;10.60;5.28;;;12.10;99.90;;;;;;4991722;28;20057;-71
2021/04/11 07:18:28;;;;;;;9.65;5.75;;;12.30;99.90;;;;;;4990866;28;20082;-71
2021/04/11 07:21:38;;;;;;;11.10;5.75;;;12.40;99.90;;;;;;4991823;28;20051;-71
2021/04/11 07:24:31;;;;;;;11.95;5.55;;;12.60;99.90;;;;;;4972367;28;20093;-71
2021/04/11 07:27:09;;;;;;;12.70;5.45;;;12.80;99.90;;;;;;4991028;28;20062;-71
2021/04/11 07:29:53;;;;;;;14.65;5.72;;;12.90;99.90;;;;;;4991388;28;20097;-72
2021/04/11 07:32:44;;;;;;;13.38;6.95;;;13.00;99.90;;;;;;4991409;28;20081;-72
2021/04/11 07:35:23;;;;;;;12.50;5.47;;;13.20;99.90;;;;;;4991335;28;20082;-72
2021/04/11 07:38:34;;;;;;;12.82;5.35;;;13.20;99.90;;;;;;4990527;28;20486;-71
2021/04/11 07:41:32;;;;;;;16.23;5.70;;;13.40;99.90;;;;;;4950400;29;20428;-72
2021/04/11 07:44:16;;;;;;;13.07;5.45;;;13.50;99.90;;;;;;4991033;28;20124;-72
2021/04/11 07:47:02;;;;;;;15.10;5.45;;;13.60;99.90;;;;;;4991294;28;20086;-72
2021/04/11 07:49:46;;;;;;;10.30;5.80;;;13.80;99.90;;;;;;4991210;28;20397;-72
2021/04/11 07:52:51;;;;;;;10.88;5.32;;;13.80;99.90;;;;;;4990753;28;20089;-71
2021/04/11 07:55:33;;;;;;;14.57;5.93;;;14.00;99.90;;;;;;4981702;28;20081;-71
2021/04/11 07:58:32;;;;;;;11.82;5.65;;;14.10;99.90;;;;;;4990292;28;20081;-72
2021/04/11 08:01:12;;;;;;;9.23;4.82;;;14.30;99.90;;;;;;4986530;28;20475;-72
2021/04/11 08:03:54;;;;;;;10.98;5.28;;;14.60;99.90;;;;;;4990816;28;20046;-72
2021/04/11 08:06:47;;;;;;;12.68;5.18;;;14.90;99.90;;;;;;4991305;28;20050;-72
2021/04/11 08:09:27;;;;;;;7.95;4.35;;;15.10;99.90;;;;;;4990589;28;20050;-72
2021/04/11 08:12:36;;;;;;;7.13;3.97;;;15.40;99.90;;;;;;4991240;28;20161;-72
2021/04/11 08:15:18;;;;;;;8.88;3.65;;;15.50;99.90;;;;;;4990407;28;20498;-72
2021/04/11 08:18:29;;;;;;;9.35;3.85;;;15.80;99.90;;;;;;4990670;28;20054;-72
2021/04/11 08:21:21;;;;;;;10.82;3.58;;;15.90;99.90;;;;;;4959940;28;20065;-72
2021/04/11 08:24:54;;;;;;;7.07;3.05;;;16.10;99.90;;;;;;4990738;28;20050;-72
2021/04/11 08:27:57;;;;;;;8.38;3.28;;;16.20;99.90;;;;;;4949442;29;20059;-72
2021/04/11 08:30:44;;;;;;;6.88;3.25;;;16.70;99.90;;;;;;4928563;29;20051;-72
2021/04/11 08:33:25;;;;;;;;;;;17.40;99.90;;;;;;4983916;28;20085;-72
2021/04/11 08:36:12;;;;;;;7.93;2.65;;;17.70;99.90;;;;;;4990343;28;19921;-72
2021/04/11 08:39:00;;;;;;;5.03;2.90;;;17.50;99.90;;;;;;4989929;28;20078;-72
2021/04/11 08:42:04;;;;;;;6.82;2.67;;;16.80;99.90;;;;;;4992098;28;20056;-72
2021/04/11 08:44:48;;;;;;;4.82;2.70;;;16.30;99.90;;;;;;4990530;28;20051;-72
2021/04/11 08:47:30;;;;;;;6.55;3.20;;;16.30;99.90;;;;;;4990221;28;20093;-72
2021/04/11 08:49:58;;;;;;;7.20;3.03;;;16.80;99.90;;;;;;4990919;28;20406;-72
2021/04/11 08:52:41;;;;;;;5.28;2.90;;;17.20;99.90;;;;;;4990649;28;20085;-73
2021/04/11 08:55:16;;;;;;;5.50;2.88;;;17.40;99.90;;;;;;4990673;28;20050;-72
2021/04/11 08:58:02;;;;;;;8.82;2.95;;;17.60;99.90;;;;;;4989494;28;20050;-72
2021/04/11 09:00:37;;;;;;;7.68;3.88;;;17.80;99.90;;;;;;4989445;28;20549;-72
2021/04/11 09:03:27;;;;;;;6.43;3.40;;;17.70;99.90;;;;;;4989998;28;20529;-72
2021/04/11 09:06:05;;;;;;;8.18;2.53;;;18.10;99.90;;;;;;4990290;28;20054;-72
2021/04/11 09:08:35;;;;;;;6.97;2.63;;;18.70;99.90;;;;;;4989308;28;20057;-72
2021/04/11 09:11:27;;;;;;;6.10;2.63;;;19.50;99.90;;;;;;4991015;28;20050;-73
2021/04/11 09:14:18;;;;;;;5.53;2.42;;;20.80;99.90;;;;;;4993757;28;20094;-72
2021/04/11 09:16:54;;;;;;;7.30;2.70;;;21.10;99.90;;;;;;4991769;28;20440;-72
2021/04/11 09:19:28;;;;;;;6.30;2.58;;;20.50;99.90;;;;;;4993566;28;20121;-74
2021/04/11 09:22:12;;;;;;;4.75;2.10;;;20.30;99.90;;;;;;4993461;28;20054;-72
2021/04/11 09:24:42;;;;;;;8.43;2.55;;;20.20;99.90;;;;;;4993255;28;20047;-72
2021/04/11 09:27:38;;;;;;;4.43;2.10;;;19.40;99.90;;;;;;4992955;28;20120;-74
2021/04/11 09:30:17;;;;;;;4.75;2.35;;;19.20;99.90;;;;;;4992967;28;20463;-72
2021/04/11 09:33:13;;;;;;;3.20;1.85;;;19.20;99.90;;;;;;4993503;28;20061;-72
2021/04/11 09:35:47;;;;;;;5.45;2.00;;;18.90;99.90;;;;;;4993929;28;20092;-72
2021/04/11 09:38:56;;;;;;;4.78;2.08;;;18.50;99.90;;;;;;4992955;28;20419;-72
2021/04/11 09:41:59;;;;;;;4.72;2.28;;;18.50;99.90;;;;;;4959059;28;20050;-72
2021/04/11 09:45:01;;;;;;;4.93;1.80;;;18.30;99.90;;;;;;4993442;28;20054;-72
2021/04/11 09:48:08;;;;;;;5.28;2.03;;;18.50;99.90;;;;;;4969375;28;20085;-73
2021/04/11 09:50:49;;;;;;;6.55;2.75;;;18.70;99.90;;;;;;4952007;29;20058;-73
2021/04/11 09:53:44;;;;;;;6.47;2.25;;;18.70;99.90;;;;;;4987544;28;20054;-73
2021/04/11 09:56:22;;;;;;;6.28;2.25;;;18.90;99.90;;;;;;4992844;28;20082;-72
2021/04/11 09:59:07;;;;;;;6.13;2.35;;;19.10;99.90;;;;;;4992711;28;20058;-73
2021/04/11 10:01:43;;;;;;;7.10;2.40;;;19.50;99.90;;;;;;4992985;28;20388;-73
2021/04/11 10:04:33;;;;;;;5.68;2.30;;;20.10;99.90;;;;;;4992748;28;20138;-73
2021/04/11 10:07:19;;;;;;;3.70;1.95;;;20.30;99.60;;;;;;4990430;28;20470;-75
2021/04/11 10:09:56;;;;;;;6.25;2.50;;;20.70;98.30;;;;;;4992529;28;20081;-73
2021/04/11 10:12:43;;;;;;;5.22;2.50;;;21.40;98.30;;;;;;4992680;28;20042;-73
2021/04/11 10:15:16;;;;;;;4.97;2.85;;;22.30;95.70;;;;;;4991928;28;20046;-73
2021/04/11 10:18:09;;;;;;;7.22;3.13;;;22.80;94.70;;;;;;4991979;28;20537;-74
2021/04/11 10:20:39;;;;;;;5.38;3.10;;;23.50;93.00;;;;;;4991875;28;20081;-74
2021/04/11 10:23:17;;;;;;;5.30;2.65;;;22.70;92.60;;;;;;4991156;28;20142;-74
2021/04/11 10:25:49;;;;;;;6.72;2.75;;;23.20;92.80;;;;;;4992073;28;20396;-72
2021/04/11 10:28:24;;;;;;;5.35;2.53;;;23.20;91.70;;;;;;4991398;28;20065;-74
2021/04/11 10:31:01;;;;;;;6.30;2.83;;;23.30;91.10;;;;;;4992117;28;20084;-74
2021/04/11 10:33:38;;;;;;;8.35;2.70;;;23.70;89.90;;;;;;4993091;28;20086;-74
2021/04/11 10:36:06;;;;;;;;;;;23.40;89.80;;;;;;4992360;28;20046;-74
2021/04/11 10:38:40;;;;;;;7.07;2.70;;;23.60;88.40;;;;;;4991816;28;19929;-75
2021/04/11 10:41:38;;;;;;;5.55;2.83;;;24.10;87.70;;;;;;4992131;28;20050;-75
2021/04/11 10:44:25;;;;;;;7.45;2.22;;;24.70;85.50;;;;;;4984316;28;20498;-74
2021/04/11 10:47:06;;;;;;;4.57;1.95;;;23.90;85.90;;;;;;4989332;28;20053;-74
2021/04/11 10:49:41;;;;;;;5.38;2.30;;;23.00;85.40;;;;;;4991727;28;20054;-75
2021/04/11 10:52:23;;;;;;;6.97;2.92;;;22.20;86.40;;;;;;4992003;28;20058;-74
2021/04/11 10:55:30;;;;;;;6.55;2.75;;;22.20;88.80;;;;;;4992457;28;20050;-74
2021/04/11 10:58:30;;;;;;;5.43;2.47;;;22.40;87.40;;;;;;4991917;28;20050;-75
2021/04/11 11:01:05;;;;;;;5.78;2.85;;;22.80;86.20;;;;;;4991576;28;20498;-75
2021/04/11 11:04:19;;;;;;;5.65;2.92;;;22.70;86.90;;;;;;4991877;28;20046;-75
2021/04/11 11:07:10;;;;;;;8.18;2.63;;;23.20;85.40;;;;;;4991503;28;20507;-75
2021/04/11 11:09:42;;;;;;;6.93;3.13;;;24.20;84.10;;;;;;4991646;28;20047;-75
2021/04/11 11:12:35;;;;;;;5.63;2.63;;;23.90;82.20;;;;;;4991186;28;20054;-76
2021/04/11 11:15:26;;;;;;;6.22;3.10;;;24.30;83.80;;;;;;4991193;28;20046;-75
2021/04/11 11:18:35;;;;;;;4.70;2.88;;;24.80;82.40;;;;;;4990926;28;20053;-75
2021/04/11 11:21:17;;;;;;;5.88;2.80;;;23.70;82.20;;;;;;4990672;28;20051;-75
2021/04/11 11:24:01;;;;;;;6.30;2.80;;;24.10;82.10;;;;;;4991574;28;20050;-74
2021/04/11 11:26:59;;;;;;;6.20;2.65;;;24.30;82.20;;;;;;4990920;28;20105;-76
2021/04/11 11:29:58;;;;;;;6.18;2.90;;;24.20;79.70;;;;;;4991367;28;20088;-74
2021/04/11 11:32:31;;;;;;;6.95;3.13;;;23.70;80.30;;;;;;4990984;28;20046;-75
2021/04/11 11:35:01;;;;;;;5.80;3.00;;;23.60;81.20;;;;;;4990597;28;20047;-76
2021/04/11 11:37:43;;;;;;;7.13;2.80;;;23.30;82.30;;;;;;4990112;28;20109;-74
2021/04/11 11:40:16;;;;;;;6.10;2.85;;;23.40;82.20;;;;;;4991064;28;20169;-74
2021/04/11 11:42:55;;;;;;;5.72;3.10;;;23.50;82.60;;;;;;4990936;28;20058;-75
2021/04/11 11:45:32;;;;;;;6.30;3.60;;;22.90;82.70;;;;;;4990549;28;20061;-75
2021/04/11 11:48:21;;;;;;;6.95;3.75;;;23.00;82.80;;;;;;4990072;28;20054;-76
2021/04/11 11:50:57;;;;;;;5.78;3.08;;;23.10;83.00;;;;;;4990477;28;20419;-74
2021/04/11 11:53:28;;;;;;;5.93;3.58;;;24.30;81.40;;;;;;4991282;28;20479;-74
2021/04/11 11:56:10;;;;;;;7.40;3.58;;;24.30;80.40;;;;;;4990612;28;20047;-74
2021/04/11 11:58:42;;;;;;;6.30;3.13;;;24.00;79.50;;;;;;4989953;28;20061;-74
2021/04/11 12:01:19;;;;;;;5.93;2.50;;;23.20;81.40;;;;;;4990466;28;20104;-74
2021/04/11 12:03:47;;;;;;;5.93;2.50;;;23.40;81.60;;;;;;4990789;28;20061;-75
2021/04/11 12:06:21;;;;;;;4.63;2.40;;;23.20;79.90;;;;;;4989909;28;20050;-76
2021/04/11 12:08:59;;;;;;;5.50;2.03;;;22.50;80.60;;;;;;4989810;28;20311;-76
2021/04/11 12:11:37;;;;;;;6.88;1.90;;;21.90;82.10;;;;;;4990407;28;20050;-76
2021/04/11 12:14:10;;;;;;;5.65;2.28;;;22.40;81.90;;;;;;4990342;28;20506;-74
2021/04/11 12:16:41;;;;;;;4.80;1.75;;;22.70;81.80;;;;;;4990319;28;20081;-76
2021/04/11 12:19:15;;;;;;;4.82;1.98;;;22.80;81.20;;;;;;4989909;28;20486;-76
2021/04/11 12:21:47;;;;;;;5.03;1.95;;;22.40;81.70;;;;;;4990287;28;20078;-74
2021/04/11 12:24:18;;;;;;;4.15;1.55;;;22.30;80.80;;;;;;4990777;28;20064;-74
2021/04/11 12:26:50;;;;;;;2.95;1.52;;;21.90;82.30;;;;;;4990198;28;20112;-74
2021/04/11 12:29:20;;;;;;;4.53;1.70;;;21.60;84.20;;;;;;4989676;28;20100;-75
2021/04/11 12:31:52;;;;;;;4.00;1.65;;;21.20;83.80;;;;;;4990684;28;20050;-76
2021/04/11 12:34:30;;;;;;;5.60;2.00;;;21.00;84.60;;;;;;4990204;28;20054;-75
2021/04/11 12:37:09;;;;;;;3.78;1.70;;;20.90;84.50;;;;;;4989633;28;20051;-76
2021/04/11 12:39:36;;;;;;;6.28;1.77;;;20.70;82.80;;;;;;4989858;28;20442;-75
2021/04/11 12:42:28;;;;;;;6.05;1.92;;;20.70;85.20;;;;;;4990296;28;20411;-77
2021/04/11 12:45:02;;;;;;;4.45;1.60;;;20.70;85.50;;;;;;4990026;28;20056;-75
2021/04/11 12:47:43;;;;;;;5.60;2.08;;;20.70;85.00;;;;;;4988918;28;20400;-74
2021/04/11 12:50:19;;;;;;;3.03;1.80;;;20.70;85.00;;;;;;4989563;28;20051;-76
2021/04/11 12:52:58;;;;;;;5.70;2.22;;;20.60;85.50;;;;;;4989960;28;20054;-76
2021/04/11 12:55:28;;;;;;;4.13;1.60;;;20.70;86.10;;;;;;4989832;28;20058;-74
2021/04/11 12:57:59;;;;;;;3.88;1.30;;;20.60;85.40;;;;;;4990047;28;20565;-74
2021/04/11 13:00:30;;;;;;;4.20;1.20;;;20.60;85.60;;;;;;4989700;28;20058;-74
2021/04/11 13:03:05;;;;;;;4.13;1.20;;;20.80;85.10;;;;;;4989649;28;20533;-76
2021/04/11 13:05:37;;;;;;;3.42;1.30;;;20.80;83.40;;;;;;4989971;28;20050;-76
2021/04/11 13:08:12;;;;;;;4.10;1.15;;;20.90;83.50;;;;;;4989502;28;20051;-76
2021/04/11 13:10:51;;;;;;;3.42;1.30;;;21.20;82.70;;;;;;4989963;28;20046;-76
2021/04/11 13:13:24;;;;;;;3.53;1.10;;;21.80;82.70;;;;;;4989744;28;20062;-76
2021/04/11 13:15:54;;;;;;;3.05;1.27;;;21.70;84.20;;;;;;4989592;28;20101;-74
2021/04/11 13:18:32;;;;;;;2.30;1.10;;;21.60;83.90;;;;;;4989227;28;20054;-74
2021/04/11 13:21:15;;;;;;;3.25;1.20;;;21.30;82.60;;;;;;4989850;28;20105;-76
2021/04/11 13:23:49;;;;;;;3.55;1.30;;;21.30;83.00;;;;;;4990088;28;20166;-77
2021/04/11 13:26:21;;;;;;;5.53;1.13;;;21.30;83.30;;;;;;4989532;28;20549;-74
2021/04/11 13:28:56;;;;;;;1.80;0.80;;;21.30;83.40;;;;;;4988955;28;20469;-74
2021/04/11 13:31:34;;;;;;;2.20;1.00;;;21.50;83.30;;;;;;4989320;28;20055;-74
2021/04/11 13:34:07;;;;;;;2.47;1.02;;;21.60;83.70;;;;;;4989494;28;20105;-75
2021/04/11 13:36:41;;;;;;;2.20;0.80;;;21.40;81.60;;;;;;4989211;28;20078;-74